Maryland METAR Reports


Distance/Direction noted is from Ellicott City, MD as the crow flies

KCBE - Cumberland - 118 miles WNW
Updated: Fri, 10/31/2014 2:35 AM
Overcast
Overcast
 Wind from calm
Wind: Calm
Temperature: 46°F
Dew Point: 39°F
Humidity: 76%
Barometer: 30.06 inHg
Clouds: Overcast
Visibility: 10 miles
Cloud Details: Overcast 4900 ft
2014/10/31 06:35 KCBE 310635Z AUTO 00000KT 10SM OVC049 08/04 A3006 RMK AO1
KHGR - Hagerstown - 57 miles NW
Updated: Fri, 10/31/2014 1:53 AM
Mostly Cloudy
Mostly Cloudy
 Wind from calm
Wind: Calm
Temperature: 43°F
Dew Point: 36°F
Humidity: 76%
Barometer: 30.03 inHg
Clouds: Mostly Cloudy
Visibility: 10 miles
Cloud Details: Mostly Cloudy 5500 ft
2014/10/31 05:53 KHGR 310553Z AUTO 00000KT 10SM BKN055 06/02 A3003 RMK AO2 SLP180 T00610022 10106 20056 56006
 
KFDK - Frederick - 34 miles NW
Updated: Fri, 10/31/2014 2:35 AM
Overcast
Overcast
 Wind from calm
Wind: Calm
Temperature: 48°F
Dew Point: 43°F
Humidity: 82%
Barometer: 30.05 inHg
Clouds: Overcast
Visibility: 10 miles
Cloud Details: Overcast 5000 ft
2014/10/31 06:35 KFDK 310635Z AUTO 00000KT 10SM OVC050 09/06 A3005 RMK AO2
KGAI - Gaithersburg - 26 miles SW
Updated: Fri, 10/31/2014 2:35 AM
Overcast
Overcast
 Wind from calm
Wind: Calm
Temperature: 45°F
Dew Point: 39°F
Humidity: 81%
Barometer: 30.05 inHg
Clouds: Overcast
Visibility: 10 miles
Cloud Details: Overcast 5000 ft
2014/10/31 06:35 KGAI 310635Z 00000KT 10SM OVC050 07/04 A3005 RMK AO1
 
KBWI - BWI Airport - 15 miles SE
Updated: Fri, 10/31/2014 1:54 AM
Mostly Cloudy
Mostly Cloudy
 Wind from calm
Wind: Calm
Temperature: 46°F
Dew Point: 39°F
Humidity: 76%
Barometer: 30.02 inHg
Clouds: Mostly Cloudy
Visibility: 10 miles
Cloud Details: Mostly Cloudy 5500 ft
2014/10/31 05:54 KBWI 310554Z 00000KT 10SM BKN055 08/04 A3002 RMK AO2 SLP165 T00830039 10111 20083 58007
KNAK - Annapolis - 32 miles SSE
Updated: Fri, 10/31/2014 1:54 AM
Overcast
Overcast
 Wind from N
Wind: N 5 mph
Temperature: 52°F
Dew Point: 39°F
Humidity: 62%
Barometer: 30.02 inHg
Clouds: Overcast
Visibility: 10 miles
Cloud Details: Overcast 6000 ft
2014/10/31 05:54 KNAK 310554Z AUTO 36004KT 10SM OVC060 11/04 A3002 RMK AO2 SLP167 T01060044 10117 20089 56008
 
KESN - Easton - 63 miles SE
Updated: Fri, 10/31/2014 2:48 AM
Clear
Clear
 Wind from calm
Wind: Calm
Temperature: 43°F
Dew Point: 41°F
Humidity: 93%
Barometer: 30.04 inHg
Clouds: Clear
Visibility: 10 miles
2014/10/31 06:48 KESN 310648Z AUTO 00000KT 10SM CLR 06/05 A3004 RMK AO2 T00640050
KSBY - Salisbury - 112 miles SE
Updated: Fri, 10/31/2014 1:54 AM
Clear
Clear
 Wind from NNE
Wind: NNE 6 mph
Temperature: 46°F
Wind Chill: 43°F
Dew Point: 39°F
Humidity: 76%
Barometer: 30.01 inHg
Clouds: Clear
Visibility: 10 miles
2014/10/31 05:54 KSBY 310554Z AUTO 02005KT 10SM CLR 08/04 A3001 RMK AO2 SLP163 T00830039 10128 20078 58007